createdAt,value
2022-10-21T00:00:40.345Z,7.73
2022-10-21T00:03:07.692Z,7.80
2022-10-21T00:05:34.821Z,7.30
2022-10-21T00:08:01.859Z,6.70
2022-10-21T00:10:29.015Z,7.50
2022-10-21T00:12:56.123Z,7.20
2022-10-21T00:15:23.214Z,7.23
2022-10-21T00:17:50.352Z,8.20
2022-10-21T00:20:18.064Z,7.70
2022-10-21T00:22:45.600Z,7.73
2022-10-21T00:25:12.946Z,7.57
2022-10-21T00:27:40.483Z,6.83
2022-10-21T00:30:08.814Z,7.27
2022-10-21T00:32:36.222Z,7.07
2022-10-21T00:35:04.004Z,7.90
2022-10-21T00:37:32.114Z,7.63
2022-10-21T00:39:59.645Z,7.13
2022-10-21T00:42:40.747Z,8.07
2022-10-21T00:45:20.596Z,6.80
2022-10-21T00:48:12.551Z,9.70
2022-10-21T00:51:08.292Z,8.00
2022-10-21T00:53:37.620Z,7.77
2022-10-21T00:56:16.239Z,9.43
2022-10-21T00:58:46.713Z,9.30
2022-10-21T01:01:17.839Z,8.53
2022-10-21T01:03:48.223Z,9.93
2022-10-21T01:06:16.659Z,7.90
2022-10-21T01:08:43.923Z,8.93
2022-10-21T01:11:14.746Z,9.57
2022-10-21T01:13:56.867Z,9.10
2022-10-21T01:16:44.414Z,8.13
2022-10-21T01:19:35.885Z,8.57
2022-10-21T01:22:30.226Z,9.10
2022-10-21T01:25:24.621Z,9.90
2022-10-21T01:28:13.189Z,9.77
2022-10-21T01:30:45.779Z,8.60
2022-10-21T01:33:21.804Z,9.83
2022-10-21T01:35:48.902Z,8.77
2022-10-21T01:38:43.683Z,7.90
2022-10-21T01:41:35.631Z,7.70
2022-10-21T01:44:36.189Z,9.73
2022-10-21T01:47:09.923Z,9.03
2022-10-21T01:49:42.392Z,8.70
2022-10-21T01:52:10.636Z,9.00
2022-10-21T01:54:48.133Z,8.97
2022-10-21T01:57:18.734Z,10.73
2022-10-21T01:59:47.955Z,10.40
2022-10-21T02:02:17.266Z,9.63
2022-10-21T02:04:45.597Z,10.57
2022-10-21T02:07:12.726Z,10.80
2022-10-21T02:09:39.810Z,10.30
2022-10-21T02:12:07.856Z,10.17
2022-10-21T02:14:48.705Z,10.77
2022-10-21T02:17:22.080Z,10.03
2022-10-21T02:19:49.226Z,10.63
2022-10-21T02:22:20.823Z,11.70
2022-10-21T02:24:51.516Z,10.13
2022-10-21T02:27:19.559Z,10.03
2022-10-21T02:29:48.588Z,12.17
2022-10-21T02:32:52.452Z,11.20
2022-10-21T02:36:07.720Z,11.43
2022-10-21T02:38:44.124Z,11.90
2022-10-21T02:41:13.527Z,11.00
2022-10-21T02:43:43.200Z,11.47
2022-10-21T02:46:12.985Z,11.23
2022-10-21T02:48:43.945Z,12.67
2022-10-21T02:51:11.930Z,11.73
2022-10-21T02:53:39.184Z,11.00
2022-10-21T02:56:07.056Z,12.40
2022-10-21T02:58:37.627Z,11.77
2022-10-21T03:01:04.898Z,12.13
2022-10-21T03:03:32.060Z,12.47
2022-10-21T03:05:59.133Z,11.67
2022-10-21T03:08:26.313Z,12.90
2022-10-21T03:10:54.611Z,11.93
2022-10-21T03:13:22.720Z,12.90
2022-10-21T03:15:50.906Z,11.93
2022-10-21T03:18:18.407Z,10.77
2022-10-21T03:20:48.768Z,11.57
2022-10-21T03:23:16.564Z,11.40
2022-10-21T03:25:43.760Z,10.90
2022-10-21T03:28:11.179Z,11.50
2022-10-21T03:30:38.331Z,11.80
2022-10-21T03:33:05.707Z,11.40
2022-10-21T03:35:32.954Z,12.60
2022-10-21T03:38:00.066Z,12.67
2022-10-21T03:40:30.498Z,11.10
2022-10-21T03:42:58.279Z,11.23
2022-10-21T03:45:25.792Z,12.10
2022-10-21T03:47:53.068Z,11.50
2022-10-21T03:50:23.770Z,12.00
2022-10-21T03:52:52.620Z,11.30
2022-10-21T03:55:21.173Z,11.10
2022-10-21T03:57:52.440Z,13.00
2022-10-21T04:00:20.303Z,11.70
2022-10-21T04:02:47.773Z,11.70
2022-10-21T04:05:15.238Z,10.70
2022-10-21T04:07:42.600Z,12.37
2022-10-21T04:10:10.595Z,10.33
2022-10-21T04:12:38.010Z,12.83
2022-10-21T04:15:06.151Z,12.40
2022-10-21T04:17:33.445Z,13.20
2022-10-21T04:20:00.557Z,13.27
2022-10-21T04:22:27.676Z,14.37
2022-10-21T04:24:54.847Z,10.90
2022-10-21T04:27:21.935Z,10.67
2022-10-21T04:29:49.017Z,12.23
2022-10-21T04:32:16.157Z,11.50
2022-10-21T04:34:43.422Z,13.27
2022-10-21T04:37:10.533Z,11.90
2022-10-21T04:39:37.751Z,12.60
2022-10-21T04:42:05.552Z,12.27
2022-10-21T04:44:32.699Z,12.40
2022-10-21T04:46:59.839Z,12.20
2022-10-21T04:49:26.943Z,12.77
2022-10-21T04:51:54.063Z,12.17
2022-10-21T04:54:21.243Z,11.43
2022-10-21T04:56:48.436Z,14.00
2022-10-21T04:59:15.644Z,12.60
2022-10-21T05:01:42.775Z,12.17
2022-10-21T05:04:09.907Z,11.30
2022-10-21T05:06:36.988Z,11.00
2022-10-21T05:09:04.390Z,10.90
2022-10-21T05:11:31.638Z,12.07
2022-10-21T05:13:58.694Z,11.77
2022-10-21T05:16:25.963Z,10.90
2022-10-21T05:18:53.101Z,10.50
2022-10-21T05:21:20.510Z,11.77
2022-10-21T05:23:47.654Z,10.83
2022-10-21T05:26:14.743Z,11.30
2022-10-21T05:28:41.874Z,10.50
2022-10-21T05:31:09.013Z,10.80
2022-10-21T05:33:36.391Z,11.57
2022-10-21T05:36:07.844Z,11.03
2022-10-21T05:38:35.339Z,11.00
2022-10-21T05:41:03.090Z,10.17
2022-10-21T05:43:30.486Z,11.13
2022-10-21T05:45:58.079Z,10.13
2022-10-21T05:48:25.271Z,10.50
2022-10-21T05:50:54.442Z,10.30
2022-10-21T05:53:24.013Z,10.27
2022-10-21T05:56:02.275Z,11.30
2022-10-21T05:58:31.142Z,10.10
2022-10-21T06:00:59.028Z,9.97
2022-10-21T06:03:30.172Z,10.37
2022-10-21T06:05:58.449Z,9.87
2022-10-21T06:08:26.571Z,10.60
2022-10-21T06:11:11.605Z,10.30
2022-10-21T06:13:38.852Z,10.03
2022-10-21T06:16:07.430Z,9.67
2022-10-21T06:18:35.093Z,8.97
2022-10-21T06:21:02.514Z,8.67
2022-10-21T06:23:29.637Z,9.80
2022-10-21T06:26:00.611Z,9.97
2022-10-21T06:28:29.887Z,9.80
2022-10-21T06:30:57.357Z,10.23
2022-10-21T06:33:26.967Z,11.00
2022-10-21T06:35:55.616Z,9.03
2022-10-21T06:38:26.299Z,11.33
2022-10-21T06:41:00.410Z,10.57
2022-10-21T06:43:27.583Z,10.10
2022-10-21T06:46:03.029Z,10.50
2022-10-21T06:48:30.177Z,10.80
2022-10-21T06:51:09.602Z,12.13
2022-10-21T06:53:39.202Z,10.20
2022-10-21T06:56:18.422Z,10.20
2022-10-21T06:58:48.217Z,11.20
2022-10-21T07:01:33.660Z,11.23
2022-10-21T07:04:03.429Z,11.00
2022-10-21T07:06:31.050Z,11.60
2022-10-21T07:08:59.161Z,12.43
2022-10-21T07:11:28.346Z,21.27
2022-10-21T07:13:55.526Z,15.57
2022-10-21T07:16:25.856Z,25.83
2022-10-21T07:18:53.598Z,20.70
2022-10-21T07:21:23.422Z,20.53
2022-10-21T07:23:52.630Z,20.90
2022-10-21T07:26:21.613Z,18.90
2022-10-21T07:28:49.383Z,17.73
2022-10-21T07:31:20.953Z,17.20
2022-10-21T07:33:48.822Z,18.40
2022-10-21T07:36:23.480Z,17.20
2022-10-21T07:38:52.011Z,18.00
2022-10-21T07:41:31.970Z,15.90
2022-10-21T07:43:59.203Z,16.50
2022-10-21T07:46:26.657Z,17.00
2022-10-21T07:48:56.821Z,16.00
2022-10-21T07:51:28.553Z,15.70
2022-10-21T07:54:00.191Z,15.50
2022-10-21T07:56:33.541Z,14.70
2022-10-21T07:59:07.699Z,15.13
2022-10-21T08:01:40.472Z,14.43
2022-10-21T08:04:07.796Z,14.00
2022-10-21T08:06:35.289Z,14.70
2022-10-21T08:09:02.677Z,15.97
2022-10-21T08:11:33.018Z,15.37
2022-10-21T08:14:00.262Z,14.97
2022-10-21T08:16:27.729Z,14.07
2022-10-21T08:18:55.721Z,15.93
2022-10-21T08:21:22.926Z,14.27
2022-10-21T08:23:50.024Z,15.43
2022-10-21T08:26:17.290Z,14.80
2022-10-21T08:28:44.714Z,15.47
2022-10-21T08:31:14.303Z,15.00
2022-10-21T08:33:41.807Z,12.87
2022-10-21T08:36:23.367Z,13.27
2022-10-21T08:38:50.937Z,13.17
2022-10-21T08:41:27.310Z,13.67
2022-10-21T08:44:15.266Z,14.37
2022-10-21T08:47:00.502Z,14.23
2022-10-21T08:49:49.968Z,13.50
2022-10-21T08:52:21.636Z,15.90
2022-10-21T08:54:59.691Z,15.83
2022-10-21T08:57:27.649Z,13.80
2022-10-21T08:59:56.418Z,15.20
2022-10-21T09:02:59.179Z,13.40
2022-10-21T09:05:39.723Z,12.83
2022-10-21T09:08:16.197Z,13.43
2022-10-21T09:10:58.314Z,13.37
2022-10-21T09:13:37.377Z,14.90
2022-10-21T09:16:44.850Z,14.37
2022-10-21T09:19:31.222Z,13.50
2022-10-21T09:22:35.280Z,15.30
2022-10-21T09:25:15.253Z,13.87
2022-10-21T09:27:55.466Z,14.50
2022-10-21T09:30:23.724Z,14.20
2022-10-21T09:32:56.470Z,13.03
2022-10-21T09:35:26.637Z,12.27
2022-10-21T09:38:18.602Z,11.63
2022-10-21T09:40:48.493Z,14.60
2022-10-21T09:43:23.788Z,14.00
2022-10-21T09:45:50.986Z,12.27
2022-10-21T09:48:18.247Z,12.70
2022-10-21T09:51:07.019Z,13.50
2022-10-21T09:53:36.948Z,12.80
2022-10-21T09:56:11.779Z,12.93
2022-10-21T09:58:38.845Z,15.30
2022-10-21T10:01:06.792Z,14.40
2022-10-21T10:03:48.728Z,13.80
2022-10-21T10:06:32.292Z,14.10
2022-10-21T10:09:32.713Z,12.80
2022-10-21T10:12:04.792Z,14.63
2022-10-21T10:14:39.253Z,12.10
2022-10-21T10:17:31.979Z,12.67
2022-10-21T10:20:05.533Z,12.80
2022-10-21T10:22:34.189Z,12.47
2022-10-21T10:25:22.889Z,14.00
2022-10-21T10:28:05.151Z,12.63
2022-10-21T10:30:45.470Z,12.70
2022-10-21T10:33:35.706Z,12.80
2022-10-21T10:36:09.348Z,16.70
2022-10-21T10:38:45.243Z,15.57
2022-10-21T10:41:17.818Z,14.63
2022-10-21T10:43:46.024Z,16.10
2022-10-21T10:46:32.841Z,13.47
2022-10-21T10:49:05.922Z,14.70
2022-10-21T10:51:35.584Z,14.60
2022-10-21T10:54:16.530Z,15.10
2022-10-21T10:57:00.745Z,16.90
2022-10-21T10:59:30.618Z,16.00
2022-10-21T11:02:22.373Z,16.03
2022-10-21T11:05:11.216Z,16.60
2022-10-21T11:07:43.660Z,15.40
2022-10-21T11:10:34.460Z,14.03
2022-10-21T11:13:03.910Z,16.20
2022-10-21T11:15:55.337Z,15.80
2022-10-21T11:18:49.741Z,15.63
2022-10-21T11:21:25.784Z,17.10
2022-10-21T11:24:01.637Z,15.10
2022-10-21T11:26:52.162Z,14.10
2022-10-21T11:29:37.068Z,15.83
2022-10-21T11:32:21.797Z,15.90
2022-10-21T11:35:26.390Z,15.70
2022-10-21T11:38:14.875Z,15.73
2022-10-21T11:41:08.120Z,15.00
2022-10-21T11:44:16.765Z,14.87
2022-10-21T11:47:05.959Z,14.23
2022-10-21T11:49:49.513Z,14.60
2022-10-21T11:52:42.753Z,15.10
2022-10-21T11:55:35.163Z,16.50
2022-10-21T11:58:12.623Z,18.10
2022-10-21T12:01:03.423Z,15.77
2022-10-21T12:03:58.304Z,17.53
2022-10-21T12:06:53.117Z,15.63
2022-10-21T12:09:32.631Z,16.17
2022-10-21T12:12:14.951Z,18.07
2022-10-21T12:14:55.333Z,17.03
2022-10-21T12:17:24.006Z,18.50
2022-10-21T12:19:57.112Z,16.00
2022-10-21T12:22:27.247Z,17.17
2022-10-21T12:25:23.879Z,17.43
2022-10-21T12:28:08.899Z,17.63
2022-10-21T12:30:54.330Z,17.03
2022-10-21T12:33:43.498Z,16.97
2022-10-21T12:36:44.361Z,17.97
2022-10-21T12:39:34.514Z,15.97
2022-10-21T12:42:17.320Z,15.57
2022-10-21T12:44:49.746Z,16.27
2022-10-21T12:47:29.146Z,15.60
2022-10-21T12:50:14.186Z,19.10
2022-10-21T12:52:43.650Z,17.40
2022-10-21T12:55:26.179Z,15.97
2022-10-21T12:58:02.655Z,17.13
2022-10-21T13:00:29.958Z,16.90
2022-10-21T13:03:14.433Z,17.17
2022-10-21T13:05:41.535Z,17.63
2022-10-21T13:08:21.079Z,15.83
2022-10-21T13:11:06.114Z,17.00
2022-10-21T13:13:44.662Z,15.83
2022-10-21T13:16:20.986Z,17.17
2022-10-21T13:18:51.449Z,17.60
2022-10-21T13:21:39.365Z,17.17
2022-10-21T13:24:12.970Z,14.53
2022-10-21T13:26:51.365Z,15.63
2022-10-21T13:29:47.131Z,14.90
2022-10-21T13:32:14.167Z,16.10
2022-10-21T13:34:53.921Z,18.47
2022-10-21T13:37:34.792Z,15.33
2022-10-21T13:40:06.938Z,16.43
2022-10-21T13:42:39.616Z,15.23
2022-10-21T13:45:26.964Z,13.97
2022-10-21T13:48:05.631Z,14.73
2022-10-21T13:50:38.577Z,15.03
2022-10-21T13:53:18.423Z,14.77
2022-10-21T13:56:07.563Z,13.50
2022-10-21T13:58:39.580Z,13.63
2022-10-21T14:01:12.582Z,14.43
2022-10-21T14:03:40.632Z,13.33
2022-10-21T14:06:09.727Z,15.17
2022-10-21T14:08:43.765Z,13.70
2022-10-21T14:11:22.951Z,16.10
2022-10-21T14:13:51.576Z,15.10
2022-10-21T14:16:22.548Z,15.87
2022-10-21T14:18:52.824Z,51.80
2022-10-21T14:21:27.998Z,38.40
2022-10-21T14:23:58.032Z,33.53
2022-10-21T14:26:30.566Z,31.33
2022-10-21T14:29:00.612Z,31.30
2022-10-21T14:31:28.201Z,28.70
2022-10-21T14:33:55.593Z,25.80
2022-10-21T14:36:26.064Z,27.23
2022-10-21T14:39:00.632Z,25.57
2022-10-21T14:41:41.484Z,26.63
2022-10-21T14:44:19.280Z,23.60
2022-10-21T14:46:49.746Z,23.23
2022-10-21T14:49:47.919Z,24.10
2022-10-21T14:52:23.315Z,23.40
2022-10-21T14:55:00.795Z,24.03
2022-10-21T14:57:47.785Z,22.70
2022-10-21T15:00:30.387Z,22.00
2022-10-21T15:02:59.486Z,19.40
2022-10-21T15:05:38.057Z,20.90
2022-10-21T15:08:34.476Z,21.80
2022-10-21T15:11:12.120Z,21.70
2022-10-21T15:13:39.265Z,20.77
2022-10-21T15:16:19.412Z,20.67
2022-10-21T15:18:49.060Z,20.47
2022-10-21T15:21:45.324Z,18.10
2022-10-21T15:24:47.109Z,19.03
2022-10-21T15:27:37.130Z,19.47
2022-10-21T15:30:14.300Z,17.40
2022-10-21T15:32:41.466Z,18.40
2022-10-21T15:35:17.779Z,20.70
2022-10-21T15:37:51.744Z,17.77
2022-10-21T15:40:20.891Z,17.10
2022-10-21T15:42:48.415Z,18.17
2022-10-21T15:45:22.304Z,16.87
2022-10-21T15:47:54.167Z,15.73
2022-10-21T15:50:26.654Z,18.07
2022-10-21T15:55:26.083Z,18.37
2022-10-21T15:57:53.231Z,15.80
2022-10-21T16:00:23.067Z,16.43
2022-10-21T16:02:51.813Z,14.90
2022-10-21T16:05:21.355Z,15.87
2022-10-21T16:07:48.622Z,15.97
2022-10-21T16:10:26.039Z,15.90
2022-10-21T16:12:53.544Z,15.30
2022-10-21T16:15:21.183Z,15.70
2022-10-21T16:17:51.852Z,14.77
2022-10-21T16:20:24.208Z,14.10
2022-10-21T16:22:51.660Z,15.40
2022-10-21T16:25:19.536Z,12.93
2022-10-21T16:28:02.461Z,15.70
2022-10-21T16:30:35.235Z,15.30
2022-10-21T16:33:02.434Z,14.63
2022-10-21T16:35:29.547Z,13.40
2022-10-21T16:37:56.779Z,13.70
2022-10-21T16:40:26.299Z,13.03
2022-10-21T16:42:54.016Z,13.90
2022-10-21T16:45:23.882Z,13.03
2022-10-21T16:47:54.347Z,12.77
2022-10-21T16:50:33.030Z,14.93
2022-10-21T16:53:02.220Z,11.43
2022-10-21T16:55:29.414Z,13.13
2022-10-21T16:57:56.528Z,12.77
2022-10-21T17:00:23.891Z,12.73
2022-10-21T17:02:52.531Z,12.83
2022-10-21T17:05:19.899Z,13.57
2022-10-21T17:07:47.384Z,13.00
2022-10-21T17:10:14.807Z,13.27
2022-10-21T17:12:42.093Z,14.50
2022-10-21T17:15:12.935Z,14.67
2022-10-21T17:17:40.280Z,14.63
2022-10-21T17:20:08.102Z,15.20
2022-10-21T17:22:35.182Z,16.23
2022-10-21T17:25:02.361Z,16.57
2022-10-21T17:27:29.466Z,12.60
2022-10-21T17:29:56.626Z,12.23
2022-10-21T17:32:25.027Z,15.10
2022-10-21T17:34:52.172Z,14.90
2022-10-21T17:37:19.311Z,14.63
2022-10-21T17:39:46.976Z,14.10
2022-10-21T17:42:17.246Z,14.40
2022-10-21T17:44:44.777Z,14.93
2022-10-21T17:47:13.985Z,14.93
2022-10-21T17:49:41.825Z,15.20
2022-10-21T17:52:09.454Z,15.57
2022-10-21T17:54:36.717Z,15.17
2022-10-21T17:57:04.491Z,16.10
2022-10-21T17:59:32.924Z,14.57
2022-10-21T18:02:00.830Z,14.27
2022-10-21T18:04:28.746Z,14.33
2022-10-21T18:06:55.971Z,16.43
2022-10-21T18:09:23.373Z,13.37
2022-10-21T18:11:50.575Z,13.97
2022-10-21T18:14:17.746Z,13.50
2022-10-21T18:16:45.034Z,14.20
2022-10-21T18:19:12.981Z,13.67
2022-10-21T18:21:40.385Z,13.17
2022-10-21T18:24:12.206Z,14.50
2022-10-21T18:26:40.159Z,14.30
2022-10-21T18:29:07.306Z,14.50
2022-10-21T18:31:38.463Z,15.57
2022-10-21T18:34:06.716Z,14.93
2022-10-21T18:36:34.255Z,15.63
2022-10-21T18:39:02.809Z,15.20
2022-10-21T18:41:30.610Z,14.60
2022-10-21T18:44:01.773Z,15.07
2022-10-21T18:46:29.835Z,15.70
2022-10-21T18:48:58.127Z,16.20
2022-10-21T18:51:25.780Z,15.60
2022-10-21T18:53:53.562Z,14.97
2022-10-21T18:56:23.024Z,13.83
2022-10-21T18:58:51.106Z,15.07
2022-10-21T19:01:19.890Z,14.50
2022-10-21T19:03:47.177Z,13.57
2022-10-21T19:06:15.095Z,15.83
2022-10-21T19:08:42.520Z,14.33
2022-10-21T19:11:09.668Z,13.00
2022-10-21T19:13:36.910Z,13.17
2022-10-21T19:16:04.222Z,14.60
2022-10-21T19:18:31.391Z,14.90
2022-10-21T19:20:58.492Z,13.73
2022-10-21T19:23:27.876Z,13.83
2022-10-21T19:25:55.091Z,13.23
2022-10-21T19:28:22.251Z,13.43
2022-10-21T19:30:49.421Z,15.20
2022-10-21T19:33:16.570Z,14.30
2022-10-21T19:35:43.783Z,12.87
2022-10-21T19:38:11.443Z,16.60
2022-10-21T19:40:43.062Z,12.70
2022-10-21T19:43:10.358Z,12.80
2022-10-21T19:45:37.680Z,12.57
2022-10-21T19:48:04.946Z,14.10
2022-10-21T19:50:32.119Z,14.23
2022-10-21T19:52:59.473Z,12.87
2022-10-21T19:55:26.619Z,11.53
2022-10-21T19:57:54.262Z,13.47
2022-10-21T20:00:21.501Z,12.80
2022-10-21T20:02:48.627Z,12.77
2022-10-21T20:05:15.749Z,14.00
2022-10-21T20:07:43.022Z,15.00
2022-10-21T20:10:10.661Z,13.83
2022-10-21T20:12:38.492Z,12.33
2022-10-21T20:15:06.607Z,11.93
2022-10-21T20:17:33.776Z,12.93
2022-10-21T20:20:01.035Z,13.30
2022-10-21T20:22:28.151Z,11.70
2022-10-21T20:24:55.269Z,12.40
2022-10-21T20:27:22.467Z,11.60
2022-10-21T20:29:49.565Z,13.27
2022-10-21T20:32:16.777Z,12.53
2022-10-21T20:34:44.064Z,11.73
2022-10-21T20:37:11.215Z,11.43
2022-10-21T20:39:38.476Z,11.03
2022-10-21T20:42:05.602Z,10.87
2022-10-21T20:44:32.710Z,11.40
2022-10-21T20:46:59.946Z,12.17
2022-10-21T20:49:27.214Z,10.60
2022-10-21T20:51:54.312Z,11.33
2022-10-21T20:54:22.914Z,11.67
2022-10-21T20:56:50.144Z,9.80
2022-10-21T20:59:17.718Z,9.93
2022-10-21T21:01:46.915Z,10.80
2022-10-21T21:04:16.286Z,9.97
2022-10-21T21:06:48.271Z,11.43
2022-10-21T21:12:04.455Z,11.43
2022-10-21T21:14:32.280Z,11.37
2022-10-21T21:16:59.498Z,11.80
2022-10-21T21:19:26.665Z,11.40
2022-10-21T21:21:53.776Z,10.83
2022-10-21T21:24:21.021Z,11.60
2022-10-21T21:26:48.211Z,10.43
2022-10-21T21:29:15.416Z,9.40
2022-10-21T21:31:42.994Z,10.70
2022-10-21T21:34:11.064Z,10.30
2022-10-21T21:36:38.596Z,9.80
2022-10-21T21:39:06.808Z,10.67
2022-10-21T21:41:34.553Z,11.00
2022-10-21T21:44:01.658Z,9.97
2022-10-21T21:46:29.032Z,9.93
2022-10-21T21:49:01.117Z,10.53
2022-10-21T21:51:33.192Z,10.40
2022-10-21T21:54:00.503Z,10.10
2022-10-21T21:56:28.273Z,11.57
2022-10-21T21:58:58.087Z,11.20
2022-10-21T22:01:29.749Z,10.67
2022-10-21T22:03:57.751Z,11.53
2022-10-21T22:06:28.521Z,11.20
2022-10-21T22:08:55.992Z,11.43
2022-10-21T22:11:26.143Z,11.67
2022-10-21T22:13:53.902Z,11.63
2022-10-21T22:16:24.453Z,11.87
2022-10-21T22:18:51.931Z,11.33
2022-10-21T22:21:19.910Z,11.37
2022-10-21T22:23:50.909Z,11.83
2022-10-21T22:26:20.090Z,12.33
2022-10-21T22:28:47.405Z,11.70
2022-10-21T22:31:16.792Z,12.10
2022-10-21T22:33:44.826Z,11.40
2022-10-21T22:36:12.098Z,11.93
2022-10-21T22:38:39.269Z,11.07
2022-10-21T22:41:09.920Z,11.03
2022-10-21T22:43:39.487Z,11.63
2022-10-21T22:46:21.596Z,11.70
2022-10-21T22:48:53.826Z,10.77
2022-10-21T22:51:20.980Z,11.90
2022-10-21T22:53:53.435Z,9.80
2022-10-21T22:56:24.292Z,10.60
2022-10-21T22:58:51.446Z,10.10
2022-10-21T23:01:18.602Z,9.50
2022-10-21T23:03:45.732Z,9.00
2022-10-21T23:06:12.845Z,8.87
2022-10-21T23:08:39.960Z,10.50
2022-10-21T23:11:07.141Z,9.30
2022-10-21T23:13:34.273Z,9.40
2022-10-21T23:16:01.515Z,9.87
2022-10-21T23:18:28.650Z,9.23
2022-10-21T23:20:55.754Z,8.47
2022-10-21T23:23:22.884Z,10.90
2022-10-21T23:25:50.048Z,9.97
2022-10-21T23:30:45.670Z,12.20
2022-10-21T23:33:12.784Z,9.40
2022-10-21T23:35:40.172Z,9.80
2022-10-21T23:38:07.361Z,8.97
2022-10-21T23:40:34.935Z,11.00
2022-10-21T23:43:02.043Z,11.23
2022-10-21T23:45:29.154Z,10.00
2022-10-21T23:47:56.280Z,9.70
2022-10-21T23:50:23.511Z,9.23
2022-10-21T23:52:50.700Z,8.90
2022-10-21T23:55:17.997Z,9.23
2022-10-21T23:57:45.295Z,8.83
